Time;durP1;ratioP1;P1;durP2;ratioP2;P2;SDS_P1;SDS_P2;PMS_P1;PMS_P2;Temp;Humidity;BMP_temperature;BMP_pressure;BME280_temperature;BME280_humidity;BME280_pressure;Samples;Min_cycle;Max_cycle;Signal;HPM_P1;HPM_P2
2023/08/26 00:01:56;;;;;;;39.22;31.33;;;;;;;;;;5008822;28;20084;-79
2023/08/26 00:04:22;;;;;;;38.00;31.00;;;;;;;;;;5028192;28;20045;-79
2023/08/26 00:06:49;;;;;;;39.08;30.50;;;;;;;;;;5031402;28;20098;-80
2023/08/26 00:09:16;;;;;;;42.28;31.38;;;;;;;;;;5010482;28;20081;-80
2023/08/26 00:11:42;;;;;;;40.97;30.00;;;;;;;;;;5034314;28;20048;-79
2023/08/26 00:14:09;;;;;;;42.03;32.33;;;;;;;;;;5030672;28;20037;-80
2023/08/26 00:16:35;;;;;;;45.28;29.88;;;;;;;;;;5012220;28;20056;-80
2023/08/26 00:19:01;;;;;;;39.28;29.88;;;;;;;;;;5006358;28;20052;-80
2023/08/26 00:21:28;;;;;;;39.92;28.83;;;;;;;;;;5008993;28;20136;-80
2023/08/26 00:23:55;;;;;;;37.65;28.48;;;;;;;;;;5012279;28;20216;-80
2023/08/26 00:26:22;;;;;;;41.17;28.73;;;;;;;;;;5008903;28;20049;-80
2023/08/26 00:28:48;;;;;;;39.88;28.13;;;;;;;;;;5004977;28;20053;-80
2023/08/26 00:31:14;;;;;;;36.95;27.70;;;;;;;;;;5007618;28;20049;-79
2023/08/26 00:33:40;;;;;;;33.78;27.35;;;;;;;;;;5010968;28;20052;-80
2023/08/26 00:36:06;;;;;;;32.67;26.13;;;;;;;;;;5007829;28;20093;-79
2023/08/26 00:38:32;;;;;;;32.17;25.58;;;;;;;;;;5005592;28;20063;-80
2023/08/26 00:40:58;;;;;;;33.75;24.75;;;;;;;;;;5007252;28;20587;-79
2023/08/26 00:43:27;;;;;;;28.42;23.75;;;;;;;;;;4992311;28;20124;-80
2023/08/26 00:45:53;;;;;;;30.55;22.40;;;;;;;;;;5007753;28;20044;-80
2023/08/26 00:48:20;;;;;;;25.10;19.95;;;;;;;;;;4978855;28;20563;-80
2023/08/26 00:50:51;;;;;;;28.42;20.83;;;;;;;;;;5009913;28;20049;-80
2023/08/26 00:53:17;;;;;;;29.92;20.05;;;;;;;;;;5006090;28;20454;-80
2023/08/26 00:55:44;;;;;;;22.60;17.85;;;;;;;;;;5013755;28;20371;-80
2023/08/26 00:58:11;;;;;;;21.40;16.92;;;;;;;;;;5012674;28;20048;-80
2023/08/26 01:00:39;;;;;;;26.73;16.00;;;;;;;;;;5010382;28;20040;-79
2023/08/26 01:03:05;;;;;;;18.30;14.93;;;;;;;;;;5009854;28;20052;-80
2023/08/26 01:05:31;;;;;;;20.17;16.13;;;;;;;;;;5012042;28;20037;-80
2023/08/26 01:07:58;;;;;;;20.20;15.52;;;;;;;;;;5006208;28;20120;-80
2023/08/26 01:10:31;;;;;;;20.77;15.18;;;;;;;;;;5009130;28;20052;-80
2023/08/26 01:13:02;;;;;;;17.75;14.55;;;;;;;;;;5008100;28;20050;-80
2023/08/26 01:15:29;;;;;;;19.00;13.55;;;;;;;;;;5009013;28;20065;-80
2023/08/26 01:17:56;;;;;;;21.48;13.73;;;;;;;;;;5008465;28;20049;-80
2023/08/26 01:20:23;;;;;;;13.85;12.40;;;;;;;;;;5007490;28;20083;-79
2023/08/26 01:22:51;;;;;;;15.18;12.40;;;;;;;;;;5005937;28;20136;-80
2023/08/26 01:25:17;;;;;;;16.25;12.88;;;;;;;;;;5005214;28;20045;-80
2023/08/26 01:27:43;;;;;;;13.98;12.55;;;;;;;;;;5009149;28;20045;-80
2023/08/26 01:30:11;;;;;;;16.80;11.95;;;;;;;;;;5009303;28;20037;-80
2023/08/26 01:32:41;;;;;;;14.82;11.80;;;;;;;;;;5008483;28;20605;-80
2023/08/26 01:35:09;;;;;;;15.25;12.10;;;;;;;;;;4997710;28;20048;-80
2023/08/26 01:37:38;;;;;;;18.05;12.63;;;;;;;;;;5010756;28;20049;-79
2023/08/26 01:40:05;;;;;;;17.33;11.98;;;;;;;;;;5013903;28;20367;-80
2023/08/26 01:42:32;;;;;;;19.58;12.90;;;;;;;;;;5017615;28;20402;-80
2023/08/26 01:44:59;;;;;;;15.07;10.98;;;;;;;;;;5010827;28;20080;-79
2023/08/26 01:47:25;;;;;;;19.75;10.90;;;;;;;;;;5014001;28;20130;-80
2023/08/26 01:49:51;;;;;;;11.70;9.85;;;;;;;;;;5009491;28;20132;-79
2023/08/26 01:52:17;;;;;;;15.82;10.15;;;;;;;;;;5013447;28;20045;-80
2023/08/26 01:54:43;;;;;;;15.90;9.60;;;;;;;;;;5014254;28;20103;-80
2023/08/26 01:57:09;;;;;;;11.15;9.40;;;;;;;;;;5012855;28;20095;-79
2023/08/26 01:59:35;;;;;;;11.88;8.65;;;;;;;;;;5013249;28;20055;-80
2023/08/26 02:02:01;;;;;;;12.68;8.75;;;;;;;;;;5010870;28;20489;-79
2023/08/26 02:04:27;;;;;;;10.93;7.80;;;;;;;;;;4997853;28;20045;-80
2023/08/26 02:06:53;;;;;;;14.88;8.82;;;;;;;;;;5013627;28;20472;-80
2023/08/26 02:09:19;;;;;;;12.48;8.20;;;;;;;;;;4997627;28;20050;-80
2023/08/26 02:11:45;;;;;;;11.30;7.95;;;;;;;;;;5018586;28;20106;-80
2023/08/26 02:14:11;;;;;;;13.75;7.28;;;;;;;;;;5015066;28;20041;-79
2023/08/26 02:16:38;;;;;;;10.20;7.25;;;;;;;;;;5019794;28;20061;-79
2023/08/26 02:19:04;;;;;;;11.02;7.15;;;;;;;;;;5018626;28;20483;-80
2023/08/26 02:21:30;;;;;;;14.15;7.30;;;;;;;;;;5017635;28;20060;-79
2023/08/26 02:23:56;;;;;;;15.48;7.35;;;;;;;;;;5020241;28;20049;-79
2023/08/26 02:26:22;;;;;;;12.48;6.15;;;;;;;;;;5017522;28;20048;-79
2023/08/26 02:28:48;;;;;;;13.07;7.03;;;;;;;;;;5020743;28;20175;-80
2023/08/26 02:31:14;;;;;;;7.90;6.60;;;;;;;;;;5019045;28;20195;-80
2023/08/26 02:33:40;;;;;;;10.18;7.35;;;;;;;;;;5019407;28;20048;-79
2023/08/26 02:36:06;;;;;;;8.27;6.05;;;;;;;;;;4985291;28;20634;-79
2023/08/26 02:38:32;;;;;;;11.50;6.70;;;;;;;;;;5010948;28;20053;-79
2023/08/26 02:40:59;;;;;;;8.38;6.68;;;;;;;;;;5010562;28;20461;-79
2023/08/26 02:43:25;;;;;;;10.73;6.13;;;;;;;;;;5012164;28;20875;-79
2023/08/26 02:45:55;;;;;;;6.55;5.85;;;;;;;;;;5006750;28;20072;-79
2023/08/26 02:48:22;;;;;;;14.60;7.07;;;;;;;;;;5012669;28;20071;-79
2023/08/26 02:50:55;;;;;;;10.02;6.28;;;;;;;;;;5011982;28;20041;-79
2023/08/26 02:53:21;;;;;;;13.80;6.20;;;;;;;;;;5011221;28;20081;-79
2023/08/26 02:55:47;;;;;;;12.02;5.70;;;;;;;;;;5013048;28;20075;-79
2023/08/26 02:58:13;;;;;;;7.70;5.78;;;;;;;;;;5010906;28;20178;-80
2023/08/26 03:00:39;;;;;;;15.43;7.05;;;;;;;;;;5005390;28;20045;-79
2023/08/26 03:03:05;;;;;;;12.57;6.20;;;;;;;;;;5006351;28;20052;-79
2023/08/26 03:05:31;;;;;;;13.68;6.30;;;;;;;;;;5004992;28;20049;-79
2023/08/26 03:07:57;;;;;;;9.82;6.30;;;;;;;;;;5010082;28;20193;-78
2023/08/26 03:10:23;;;;;;;8.13;5.78;;;;;;;;;;5010348;28;21016;-79
2023/08/26 03:12:49;;;;;;;10.93;5.65;;;;;;;;;;5005909;28;20049;-79
2023/08/26 03:15:15;;;;;;;10.45;6.00;;;;;;;;;;5008150;28;20068;-79
2023/08/26 03:17:41;;;;;;;9.40;6.28;;;;;;;;;;5008404;28;20056;-79
2023/08/26 03:20:08;;;;;;;9.85;6.13;;;;;;;;;;4993800;28;20049;-79
2023/08/26 03:22:35;;;;;;;14.30;6.63;;;;;;;;;;5013924;28;20404;-79
2023/08/26 03:25:01;;;;;;;10.48;6.05;;;;;;;;;;5014612;28;20549;-81
2023/08/26 03:27:27;;;;;;;11.02;5.55;;;;;;;;;;5014519;28;20053;-80
2023/08/26 03:29:54;;;;;;;10.77;6.53;;;;;;;;;;5000593;28;20049;-80
2023/08/26 03:32:20;;;;;;;10.30;5.85;;;;;;;;;;5016706;28;20079;-81
2023/08/26 03:34:47;;;;;;;7.40;5.40;;;;;;;;;;5013386;28;21642;-81
2023/08/26 03:37:13;;;;;;;10.95;5.32;;;;;;;;;;5015340;28;20041;-81
2023/08/26 03:39:39;;;;;;;12.13;5.63;;;;;;;;;;5017461;28;20045;-81
2023/08/26 03:42:06;;;;;;;7.75;5.22;;;;;;;;;;5001354;28;20136;-81
2023/08/26 03:44:32;;;;;;;8.20;5.10;;;;;;;;;;4997921;28;20169;-81
2023/08/26 03:46:58;;;;;;;7.38;4.95;;;;;;;;;;5014659;28;20044;-81
2023/08/26 03:49:24;;;;;;;9.98;5.95;;;;;;;;;;5012402;28;20379;-80
2023/08/26 03:51:51;;;;;;;10.13;5.00;;;;;;;;;;5013176;28;20297;-81
2023/08/26 03:54:18;;;;;;;9.55;4.82;;;;;;;;;;5016275;28;20051;-81
2023/08/26 03:56:44;;;;;;;11.38;4.93;;;;;;;;;;5016871;28;20048;-81
2023/08/26 03:59:10;;;;;;;6.07;4.68;;;;;;;;;;5011586;28;20468;-80
2023/08/26 04:01:36;;;;;;;16.40;5.30;;;;;;;;;;5011502;28;20538;-81
2023/08/26 04:04:02;;;;;;;9.20;4.65;;;;;;;;;;5011984;28;20068;-81
2023/08/26 04:06:28;;;;;;;5.60;4.60;;;;;;;;;;4996552;28;20560;-81
2023/08/26 04:08:54;;;;;;;8.40;4.72;;;;;;;;;;5011603;28;20045;-81
2023/08/26 04:11:20;;;;;;;6.93;4.60;;;;;;;;;;5009335;28;21729;-81
2023/08/26 04:13:46;;;;;;;8.32;4.68;;;;;;;;;;5012566;28;20068;-81
2023/08/26 04:16:15;;;;;;;5.63;4.50;;;;;;;;;;5013307;28;20060;-81
2023/08/26 04:18:42;;;;;;;9.65;5.10;;;;;;;;;;5014188;28;20520;-81
2023/08/26 04:21:08;;;;;;;5.93;5.05;;;;;;;;;;5013766;28;20037;-80
2023/08/26 04:23:34;;;;;;;7.40;5.00;;;;;;;;;;5010008;28;20168;-81
2023/08/26 04:26:02;;;;;;;10.27;5.30;;;;;;;;;;5011975;28;20045;-81
2023/08/26 04:28:29;;;;;;;11.57;5.60;;;;;;;;;;5012086;28;20050;-80
2023/08/26 04:30:55;;;;;;;6.30;5.13;;;;;;;;;;5010409;28;20059;-78
2023/08/26 04:33:21;;;;;;;7.60;4.88;;;;;;;;;;5017299;28;20493;-78
2023/08/26 04:35:47;;;;;;;7.75;5.00;;;;;;;;;;5012664;28;20107;-78
2023/08/26 04:38:13;;;;;;;8.30;5.53;;;;;;;;;;5014345;28;20045;-78
2023/08/26 04:40:41;;;;;;;10.23;5.57;;;;;;;;;;5014050;28;20459;-78
2023/08/26 04:43:10;;;;;;;7.57;5.45;;;;;;;;;;5013020;28;20041;-79
2023/08/26 04:45:37;;;;;;;6.13;5.28;;;;;;;;;;5009975;28;20053;-79
2023/08/26 04:48:04;;;;;;;9.07;5.82;;;;;;;;;;5013054;28;20041;-78
2023/08/26 04:50:30;;;;;;;9.02;5.63;;;;;;;;;;5011771;28;20437;-78
2023/08/26 04:52:56;;;;;;;10.52;5.80;;;;;;;;;;5014331;28;20041;-79
2023/08/26 04:55:22;;;;;;;7.43;6.03;;;;;;;;;;5013087;28;20050;-79
2023/08/26 04:57:48;;;;;;;8.63;6.50;;;;;;;;;;5011919;28;20123;-79
2023/08/26 05:00:16;;;;;;;10.40;6.68;;;;;;;;;;5012271;28;20800;-78
2023/08/26 05:02:43;;;;;;;9.77;5.75;;;;;;;;;;4993801;28;20100;-78
2023/08/26 05:05:09;;;;;;;6.88;5.90;;;;;;;;;;5011809;28;20041;-79
2023/08/26 05:07:35;;;;;;;8.02;5.90;;;;;;;;;;5010018;28;20529;-79
2023/08/26 05:10:03;;;;;;;9.38;6.28;;;;;;;;;;5014808;28;20045;-79
2023/08/26 05:12:29;;;;;;;8.98;5.95;;;;;;;;;;5017384;28;20087;-79
2023/08/26 05:14:56;;;;;;;9.38;6.63;;;;;;;;;;5015307;28;20930;-79
2023/08/26 05:17:22;;;;;;;10.60;6.97;;;;;;;;;;5012132;28;20085;-79
2023/08/26 05:19:48;;;;;;;7.15;5.75;;;;;;;;;;5013689;28;20135;-79
2023/08/26 05:22:14;;;;;;;6.78;5.38;;;;;;;;;;5016774;28;20505;-79
2023/08/26 05:24:40;;;;;;;9.68;5.00;;;;;;;;;;4999688;28;20167;-79
2023/08/26 05:27:06;;;;;;;12.13;5.72;;;;;;;;;;5018702;28;20042;-78
2023/08/26 05:29:33;;;;;;;7.70;5.18;;;;;;;;;;5018541;28;20131;-78
2023/08/26 05:31:59;;;;;;;7.78;5.00;;;;;;;;;;5020329;28;20104;-79
2023/08/26 05:34:26;;;;;;;8.07;4.85;;;;;;;;;;5019426;28;20060;-79
2023/08/26 05:36:52;;;;;;;9.20;5.38;;;;;;;;;;5020326;28;20033;-79
2023/08/26 05:39:18;;;;;;;9.13;5.47;;;;;;;;;;5015634;28;20065;-79
2023/08/26 05:41:44;;;;;;;8.68;5.88;;;;;;;;;;4998850;28;20351;-79
2023/08/26 05:44:10;;;;;;;10.50;5.80;;;;;;;;;;5017870;28;20460;-79
2023/08/26 05:46:36;;;;;;;10.23;6.25;;;;;;;;;;5017201;28;20103;-79
2023/08/26 05:49:02;;;;;;;10.25;6.32;;;;;;;;;;5019303;28;20049;-79
2023/08/26 05:51:28;;;;;;;10.10;5.60;;;;;;;;;;5016942;28;20516;-79
2023/08/26 05:53:54;;;;;;;9.10;5.50;;;;;;;;;;5017984;28;20045;-79
2023/08/26 05:56:20;;;;;;;7.10;5.60;;;;;;;;;;5013810;28;20044;-79
2023/08/26 05:58:46;;;;;;;9.90;5.88;;;;;;;;;;4998033;28;20049;-79
2023/08/26 06:01:12;;;;;;;6.45;5.35;;;;;;;;;;5011946;28;20098;-79
2023/08/26 06:03:38;;;;;;;9.65;5.80;;;;;;;;;;5011289;28;20067;-79
2023/08/26 06:06:05;;;;;;;6.95;5.22;;;;;;;;;;5012259;28;20501;-79
2023/08/26 06:08:31;;;;;;;9.50;5.57;;;;;;;;;;5013203;28;20168;-79
2023/08/26 06:10:57;;;;;;;9.13;5.03;;;;;;;;;;5016527;28;20128;-79
2023/08/26 06:13:24;;;;;;;12.88;6.95;;;;;;;;;;4999269;28;20049;-79
2023/08/26 06:15:53;;;;;;;7.53;4.95;;;;;;;;;;5018356;28;20514;-79
2023/08/26 06:18:20;;;;;;;7.05;5.13;;;;;;;;;;5002876;28;20049;-79
2023/08/26 06:20:47;;;;;;;10.88;6.50;;;;;;;;;;5037632;28;20044;-79
2023/08/26 06:23:13;;;;;;;14.02;6.25;;;;;;;;;;5037051;28;20132;-79
2023/08/26 06:25:49;;;;;;;8.68;5.50;;;;;;;;;;5015246;28;20561;-79
2023/08/26 06:28:16;;;;;;;7.20;6.28;;;;;;;;;;5036661;28;20079;-79
2023/08/26 06:30:42;;;;;;;8.90;5.78;;;;;;;;;;4997082;28;20070;-79
2023/08/26 06:33:08;;;;;;;7.13;5.80;;;;;;;;;;5032490;28;20053;-79
2023/08/26 06:35:34;;;;;;;10.13;5.72;;;;;;;;;;5022195;28;20124;-79
2023/08/26 06:38:00;;;;;;;9.65;5.75;;;;;;;;;;5022401;28;20894;-78
2023/08/26 06:40:26;;;;;;;8.05;5.88;;;;;;;;;;5041203;28;20496;-78
2023/08/26 06:42:52;;;;;;;7.80;5.85;;;;;;;;;;5036963;28;20045;-79
2023/08/26 06:45:18;;;;;;;9.32;5.75;;;;;;;;;;5037883;28;20198;-79
2023/08/26 06:47:44;;;;;;;8.50;5.97;;;;;;;;;;5017929;28;20048;-79
2023/08/26 06:50:10;;;;;;;7.43;5.72;;;;;;;;;;5016310;28;20148;-74
2023/08/26 06:52:36;;;;;;;14.20;6.00;;;;;;;;;;5017667;28;20060;-75
2023/08/26 06:55:04;;;;;;;9.30;6.50;;;;;;;;;;5035357;28;20040;-74
2023/08/26 06:57:30;;;;;;;7.60;6.10;;;;;;;;;;5021529;28;20041;-79
2023/08/26 06:59:56;;;;;;;9.45;6.72;;;;;;;;;;5043722;28;20051;-80
2023/08/26 07:02:22;;;;;;;9.23;5.65;;;;;;;;;;5021606;28;20094;-79
2023/08/26 07:04:48;;;;;;;8.05;6.43;;;;;;;;;;5039116;28;20086;-80
2023/08/26 07:07:14;;;;;;;9.85;5.70;;;;;;;;;;5020139;28;20665;-80
2023/08/26 07:09:40;;;;;;;9.32;5.05;;;;;;;;;;5021306;28;20168;-80
2023/08/26 07:12:06;;;;;;;6.78;4.50;;;;;;;;;;5034884;28;20542;-80
2023/08/26 07:14:32;;;;;;;5.47;4.53;;;;;;;;;;5015206;28;20512;-80
2023/08/26 07:16:58;;;;;;;8.20;4.65;;;;;;;;;;5033019;28;20133;-79
2023/08/26 07:19:25;;;;;;;8.50;4.60;;;;;;;;;;5034000;28;20051;-79
2023/08/26 07:21:51;;;;;;;5.63;4.55;;;;;;;;;;5011591;28;20563;-80
2023/08/26 07:24:18;;;;;;;5.13;4.43;;;;;;;;;;5035336;28;20036;-80
2023/08/26 07:26:44;;;;;;;9.77;4.53;;;;;;;;;;5033188;28;20048;-80
2023/08/26 07:29:10;;;;;;;7.53;4.25;;;;;;;;;;5016664;28;20741;-80
2023/08/26 07:31:36;;;;;;;7.95;3.70;;;;;;;;;;5032631;28;20128;-80
2023/08/26 07:34:02;;;;;;;4.38;3.97;;;;;;;;;;5025399;28;20041;-80
2023/08/26 07:36:29;;;;;;;5.95;4.03;;;;;;;;;;5026152;28;20040;-80
2023/08/26 07:38:55;;;;;;;6.13;4.00;;;;;;;;;;5043731;28;20068;-80
2023/08/26 07:41:21;;;;;;;7.00;4.03;;;;;;;;;;5024333;28;20047;-80
2023/08/26 07:43:47;;;;;;;9.57;3.67;;;;;;;;;;5020820;28;20663;-80
2023/08/26 07:46:14;;;;;;;6.25;3.65;;;;;;;;;;5007081;28;20076;-80
2023/08/26 07:48:40;;;;;;;5.75;3.92;;;;;;;;;;5008265;28;20045;-80
2023/08/26 07:51:06;;;;;;;8.70;4.43;;;;;;;;;;5025405;28;20049;-80
2023/08/26 07:53:33;;;;;;;4.25;3.40;;;;;;;;;;5024330;28;20048;-80
2023/08/26 07:55:59;;;;;;;6.03;3.13;;;;;;;;;;5021219;28;21611;-80
2023/08/26 07:58:25;;;;;;;4.05;3.65;;;;;;;;;;5020395;28;20101;-80
2023/08/26 08:00:51;;;;;;;6.22;3.33;;;;;;;;;;5018653;28;20033;-80
2023/08/26 08:03:17;;;;;;;6.22;3.50;;;;;;;;;;5022692;28;20036;-80
2023/08/26 08:05:43;;;;;;;5.80;3.53;;;;;;;;;;5041061;28;20493;-80
2023/08/26 08:08:09;;;;;;;7.72;3.33;;;;;;;;;;5041658;28;20028;-80
2023/08/26 08:10:35;;;;;;;4.78;3.40;;;;;;;;;;5042852;28;20044;-80
2023/08/26 08:13:01;;;;;;;6.60;3.80;;;;;;;;;;5007872;28;20053;-80
2023/08/26 08:15:27;;;;;;;5.50;3.85;;;;;;;;;;5024093;28;20036;-81
2023/08/26 08:17:53;;;;;;;4.88;4.47;;;;;;;;;;5002589;28;20560;-81
2023/08/26 08:20:19;;;;;;;6.97;6.00;;;;;;;;;;5023139;28;20131;-80
2023/08/26 08:22:45;;;;;;;8.73;7.15;;;;;;;;;;5023969;28;20052;-76
2023/08/26 08:25:12;;;;;;;10.38;7.18;;;;;;;;;;5018190;28;20048;-76
2023/08/26 08:27:39;;;;;;;15.15;9.65;;;;;;;;;;5022149;28;20055;-76
2023/08/26 08:30:05;;;;;;;15.65;9.65;;;;;;;;;;5036128;28;20040;-76
2023/08/26 08:32:32;;;;;;;15.02;11.45;;;;;;;;;;5038572;28;20087;-76
2023/08/26 08:34:59;;;;;;;12.95;10.88;;;;;;;;;;5040234;28;20124;-76
2023/08/26 08:37:25;;;;;;;12.63;10.25;;;;;;;;;;5036528;28;20048;-75
2023/08/26 08:39:51;;;;;;;16.00;12.77;;;;;;;;;;5021236;28;20048;-76
2023/08/26 08:42:18;;;;;;;15.50;13.05;;;;;;;;;;5042065;28;20040;-76
2023/08/26 08:44:48;;;;;;;17.75;15.93;;;;;;;;;;5043819;28;20614;-76
2023/08/26 08:47:14;;;;;;;22.05;16.73;;;;;;;;;;5024906;28;20131;-75
2023/08/26 08:49:42;;;;;;;18.23;16.15;;;;;;;;;;5019741;28;20082;-76
2023/08/26 08:52:08;;;;;;;18.73;14.95;;;;;;;;;;5037677;28;20044;-77
2023/08/26 08:54:35;;;;;;;20.23;17.58;;;;;;;;;;5009282;28;20174;-76
2023/08/26 08:57:04;;;;;;;19.85;16.75;;;;;;;;;;5015897;28;20110;-75
2023/08/26 08:59:32;;;;;;;21.35;17.58;;;;;;;;;;5004644;28;20497;-76
2023/08/26 09:01:59;;;;;;;22.40;17.50;;;;;;;;;;5036207;28;20053;-75
2023/08/26 09:04:25;;;;;;;19.48;17.40;;;;;;;;;;5021348;28;21363;-75
2023/08/26 09:06:52;;;;;;;20.38;16.83;;;;;;;;;;5035667;28;20048;-77
2023/08/26 09:09:18;;;;;;;21.30;18.13;;;;;;;;;;5018102;28;20049;-74
2023/08/26 09:11:45;;;;;;;21.13;18.50;;;;;;;;;;5016028;28;20059;-73
2023/08/26 09:14:11;;;;;;;20.30;17.35;;;;;;;;;;5019569;28;20036;-74
2023/08/26 09:16:42;;;;;;;22.88;17.77;;;;;;;;;;5010481;28;20061;-73
2023/08/26 09:19:09;;;;;;;23.33;18.65;;;;;;;;;;5015221;28;20045;-73
2023/08/26 09:21:35;;;;;;;19.65;17.52;;;;;;;;;;5013838;28;20049;-73
2023/08/26 09:24:01;;;;;;;19.73;17.45;;;;;;;;;;5013935;28;20047;-73
2023/08/26 09:26:27;;;;;;;20.05;17.90;;;;;;;;;;4993941;28;20045;-74
2023/08/26 09:28:54;;;;;;;22.75;17.58;;;;;;;;;;5011095;28;20047;-73
2023/08/26 09:31:20;;;;;;;24.90;18.33;;;;;;;;;;5016263;28;20037;-73
2023/08/26 09:33:50;;;;;;;25.40;18.60;;;;;;;;;;5017039;28;20060;-73
2023/08/26 09:36:17;;;;;;;19.90;17.55;;;;;;;;;;5010229;28;20413;-73
2023/08/26 09:38:50;;;;;;;20.60;18.00;;;;;;;;;;5008734;28;20045;-74
2023/08/26 09:41:24;;;;;;;21.85;18.90;;;;;;;;;;5014081;28;20111;-73
2023/08/26 09:43:50;;;;;;;20.90;17.85;;;;;;;;;;5016496;28;20044;-74
2023/08/26 09:46:19;;;;;;;22.33;17.38;;;;;;;;;;5015293;28;20049;-73
2023/08/26 09:48:51;;;;;;;19.67;16.38;;;;;;;;;;5015177;28;20076;-73
2023/08/26 09:51:27;;;;;;;16.38;14.05;;;;;;;;;;5000294;28;20050;-74
2023/08/26 09:53:54;;;;;;;16.10;14.48;;;;;;;;;;5015724;28;20132;-74
2023/08/26 09:56:22;;;;;;;22.45;13.73;;;;;;;;;;5016724;28;20041;-73
2023/08/26 09:58:48;;;;;;;16.05;11.18;;;;;;;;;;5017774;28;20178;-73
2023/08/26 10:01:15;;;;;;;13.90;12.05;;;;;;;;;;5018257;28;20132;-73
2023/08/26 10:03:45;;;;;;;12.98;10.77;;;;;;;;;;5017742;28;20045;-75
2023/08/26 10:06:12;;;;;;;9.75;8.70;;;;;;;;;;5016993;28;20422;-73
2023/08/26 10:08:39;;;;;;;10.68;9.18;;;;;;;;;;5000686;28;20470;-73
2023/08/26 10:11:07;;;;;;;11.15;8.80;;;;;;;;;;5015777;28;20076;-73
2023/08/26 10:13:36;;;;;;;15.40;9.13;;;;;;;;;;5018705;28;20564;-74
2023/08/26 10:16:05;;;;;;;10.70;8.18;;;;;;;;;;5014485;28;20053;-73
2023/08/26 10:18:46;;;;;;;10.82;8.85;;;;;;;;;;5033926;28;20115;-74
2023/08/26 10:21:14;;;;;;;12.52;8.25;;;;;;;;;;5020208;28;20041;-74
2023/08/26 10:23:40;;;;;;;11.70;8.50;;;;;;;;;;5016472;28;20152;-75
2023/08/26 10:26:09;;;;;;;11.18;7.65;;;;;;;;;;5016946;28;20049;-75
2023/08/26 10:28:36;;;;;;;9.82;7.20;;;;;;;;;;5016163;28;21064;-74
2023/08/26 10:31:08;;;;;;;13.50;7.47;;;;;;;;;;5014091;28;20052;-76
2023/08/26 10:33:58;;;;;;;10.60;6.38;;;;;;;;;;5016036;28;20053;-74
2023/08/26 10:36:24;;;;;;;8.13;7.07;;;;;;;;;;5017280;28;20071;-74
2023/08/26 10:38:58;;;;;;;10.63;7.22;;;;;;;;;;5034976;28;20098;-74
2023/08/26 10:41:24;;;;;;;11.13;7.03;;;;;;;;;;5013438;28;20048;-74
2023/08/26 10:43:52;;;;;;;6.88;6.18;;;;;;;;;;5031565;28;20127;-74
2023/08/26 10:46:18;;;;;;;11.80;7.70;;;;;;;;;;5033697;28;20091;-73
2023/08/26 10:48:56;;;;;;;13.55;8.00;;;;;;;;;;5038165;28;20037;-74
2023/08/26 10:51:22;;;;;;;10.85;8.70;;;;;;;;;;5023455;28;20044;-73
2023/08/26 10:53:48;;;;;;;17.40;9.63;;;;;;;;;;5033486;28;20037;-73
2023/08/26 10:56:18;;;;;;;10.52;7.00;;;;;;;;;;5016151;28;20040;-72
2023/08/26 10:58:46;;;;;;;13.00;5.10;;;;;;;;;;5016350;28;20060;-71
2023/08/26 11:01:12;;;;;;;12.35;2.67;;;;;;;;;;5020190;28;20052;-72
2023/08/26 11:03:38;;;;;;;6.82;2.40;;;;;;;;;;5039338;28;22131;-71
2023/08/26 11:06:05;;;;;;;4.70;2.58;;;;;;;;;;5020441;28;20124;-72
2023/08/26 11:08:32;;;;;;;1.65;1.10;;;;;;;;;;5017813;28;20064;-73
2023/08/26 11:10:58;;;;;;;3.08;1.00;;;;;;;;;;5020139;28;20131;-71
2023/08/26 11:13:24;;;;;;;4.47;1.33;;;;;;;;;;5017753;28;21428;-72
2023/08/26 11:15:51;;;;;;;5.40;1.60;;;;;;;;;;5019185;28;20052;-72
2023/08/26 11:18:17;;;;;;;5.63;1.80;;;;;;;;;;5018554;28;21926;-73
2023/08/26 11:20:46;;;;;;;4.03;1.42;;;;;;;;;;5034218;28;20449;-72
2023/08/26 11:23:12;;;;;;;3.45;1.50;;;;;;;;;;5018626;28;20084;-73
2023/08/26 11:25:38;;;;;;;2.60;1.42;;;;;;;;;;5007128;28;20037;-74
2023/08/26 11:28:05;;;;;;;1.42;1.33;;;;;;;;;;5037530;28;20810;-73
2023/08/26 11:30:36;;;;;;;2.28;1.13;;;;;;;;;;5035102;28;20172;-74
2023/08/26 11:33:08;;;;;;;1.95;1.15;;;;;;;;;;5016812;28;20048;-74
2023/08/26 11:35:36;;;;;;;5.07;1.42;;;;;;;;;;5035783;28;20058;-74
2023/08/26 11:38:03;;;;;;;1.20;1.10;;;;;;;;;;5019340;28;20492;-74
2023/08/26 11:40:29;;;;;;;1.52;1.13;;;;;;;;;;5034083;28;20041;-75
2023/08/26 11:42:55;;;;;;;1.45;1.30;;;;;;;;;;5016337;28;20566;-74
2023/08/26 11:45:21;;;;;;;1.83;1.38;;;;;;;;;;5016520;28;20080;-74
2023/08/26 11:47:47;;;;;;;3.30;1.88;;;;;;;;;;5017584;28;20498;-75
2023/08/26 11:50:13;;;;;;;2.58;1.70;;;;;;;;;;5015347;28;20091;-74
2023/08/26 11:52:41;;;;;;;3.00;1.63;;;;;;;;;;5034522;28;20075;-75
2023/08/26 11:55:08;;;;;;;3.25;2.00;;;;;;;;;;5035361;28;20048;-74
2023/08/26 11:57:38;;;;;;;1.98;1.65;;;;;;;;;;5036859;28;20040;-74
2023/08/26 12:00:12;;;;;;;3.65;2.10;;;;;;;;;;5004580;28;20040;-74
2023/08/26 12:02:38;;;;;;;3.60;2.58;;;;;;;;;;5011979;28;21338;-73
2023/08/26 12:05:05;;;;;;;3.97;2.95;;;;;;;;;;5034317;28;20100;-74
2023/08/26 12:07:31;;;;;;;5.20;3.22;;;;;;;;;;5020618;28;20186;-73
2023/08/26 12:09:59;;;;;;;5.43;3.00;;;;;;;;;;5034852;28;21654;-73
2023/08/26 12:12:25;;;;;;;5.05;3.80;;;;;;;;;;5015908;28;20160;-74
2023/08/26 12:14:52;;;;;;;7.63;4.15;;;;;;;;;;5013769;28;20483;-73
2023/08/26 12:17:18;;;;;;;6.13;4.15;;;;;;;;;;5031604;28;20056;-73
2023/08/26 12:19:44;;;;;;;7.13;4.32;;;;;;;;;;5017199;28;20485;-73
2023/08/26 12:22:11;;;;;;;7.82;5.28;;;;;;;;;;5018813;28;20087;-73
2023/08/26 12:24:38;;;;;;;8.05;5.90;;;;;;;;;;5034972;28;20041;-74
2023/08/26 12:27:11;;;;;;;8.60;5.10;;;;;;;;;;5014374;28;20048;-73
2023/08/26 12:29:38;;;;;;;7.78;5.25;;;;;;;;;;5016069;28;20071;-73
2023/08/26 12:32:04;;;;;;;11.75;5.70;;;;;;;;;;5030783;28;20041;-74
2023/08/26 12:34:33;;;;;;;8.38;6.32;;;;;;;;;;5010693;28;20476;-72
2023/08/26 12:36:59;;;;;;;5.93;5.28;;;;;;;;;;4996979;28;20499;-74
2023/08/26 12:39:25;;;;;;;8.50;5.97;;;;;;;;;;5013335;28;20496;-73
2023/08/26 12:41:52;;;;;;;8.05;5.22;;;;;;;;;;5034985;28;20049;-75
2023/08/26 12:44:18;;;;;;;6.40;5.13;;;;;;;;;;5039219;28;20127;-74
2023/08/26 12:46:45;;;;;;;5.93;4.60;;;;;;;;;;5020580;28;20075;-74
2023/08/26 12:49:11;;;;;;;8.80;4.60;;;;;;;;;;5040189;28;20048;-74
2023/08/26 12:51:37;;;;;;;5.82;4.63;;;;;;;;;;5026724;28;20060;-75
2023/08/26 12:54:03;;;;;;;7.90;4.00;;;;;;;;;;5013223;28;20054;-75
2023/08/26 12:56:29;;;;;;;9.57;4.80;;;;;;;;;;5022637;28;20036;-76
2023/08/26 12:58:56;;;;;;;6.97;3.80;;;;;;;;;;5022607;28;20093;-76
2023/08/26 13:01:22;;;;;;;4.22;3.50;;;;;;;;;;5035667;28;21742;-75
2023/08/26 13:03:48;;;;;;;5.55;3.70;;;;;;;;;;5015901;28;20531;-75
2023/08/26 13:06:14;;;;;;;7.45;3.95;;;;;;;;;;5035001;28;20040;-74
2023/08/26 13:08:40;;;;;;;5.13;3.85;;;;;;;;;;5035537;28;20584;-75
2023/08/26 13:11:06;;;;;;;4.85;4.30;;;;;;;;;;5016609;28;20037;-75
2023/08/26 13:13:32;;;;;;;4.88;3.78;;;;;;;;;;5035570;28;20041;-76
2023/08/26 13:15:58;;;;;;;5.45;4.40;;;;;;;;;;5017731;28;20053;-75
2023/08/26 13:18:25;;;;;;;5.82;4.70;;;;;;;;;;5032774;28;20064;-75
2023/08/26 13:20:51;;;;;;;7.18;4.53;;;;;;;;;;4999959;28;21054;-74
2023/08/26 13:23:17;;;;;;;6.78;5.05;;;;;;;;;;5035923;28;20053;-74
2023/08/26 13:25:43;;;;;;;6.32;4.93;;;;;;;;;;5016255;28;20580;-74
2023/08/26 13:28:09;;;;;;;5.85;4.03;;;;;;;;;;5020633;28;20369;-74
2023/08/26 13:30:35;;;;;;;4.88;3.08;;;;;;;;;;5040466;28;20048;-73
2023/08/26 13:33:02;;;;;;;6.93;2.75;;;;;;;;;;5042135;28;20072;-73
2023/08/26 13:35:28;;;;;;;2.50;1.85;;;;;;;;;;5018986;28;20145;-74
2023/08/26 13:37:54;;;;;;;2.15;1.15;;;;;;;;;;5037872;28;20033;-74
2023/08/26 13:40:21;;;;;;;4.65;1.60;;;;;;;;;;5021013;28;20048;-74
2023/08/26 13:42:47;;;;;;;1.95;1.15;;;;;;;;;;5003812;28;20115;-72
2023/08/26 13:45:14;;;;;;;1.42;0.90;;;;;;;;;;5007365;28;20647;-73
2023/08/26 13:47:40;;;;;;;1.35;0.50;;;;;;;;;;5023994;28;20033;-73
2023/08/26 13:50:06;;;;;;;1.70;0.88;;;;;;;;;;5023130;28;20445;-74
2023/08/26 13:52:32;;;;;;;2.85;0.93;;;;;;;;;;5021375;28;20497;-74
2023/08/26 13:54:58;;;;;;;2.63;0.90;;;;;;;;;;5019414;28;20123;-75
2023/08/26 13:57:24;;;;;;;1.92;0.80;;;;;;;;;;5023334;28;20493;-75
2023/08/26 13:59:52;;;;;;;2.05;0.90;;;;;;;;;;5025549;28;20093;-74
2023/08/26 14:02:20;;;;;;;1.17;0.60;;;;;;;;;;5026312;28;20051;-74
2023/08/26 14:04:46;;;;;;;1.70;1.02;;;;;;;;;;5025716;28;20056;-74
2023/08/26 14:07:12;;;;;;;3.90;1.20;;;;;;;;;;5044596;28;20411;-74
2023/08/26 14:09:38;;;;;;;2.45;1.08;;;;;;;;;;5024803;28;20040;-74
2023/08/26 14:12:04;;;;;;;1.23;1.00;;;;;;;;;;5042003;28;20184;-74
2023/08/26 14:14:30;;;;;;;2.00;0.90;;;;;;;;;;5024158;28;20095;-75
2023/08/26 14:16:56;;;;;;;2.03;0.90;;;;;;;;;;5019516;28;20408;-74
2023/08/26 14:19:23;;;;;;;3.47;1.00;;;;;;;;;;5020875;28;20045;-74
2023/08/26 14:21:49;;;;;;;2.88;1.02;;;;;;;;;;5042656;28;20076;-75
2023/08/26 14:24:15;;;;;;;4.40;1.77;;;;;;;;;;5005418;28;20048;-75
2023/08/26 14:26:41;;;;;;;2.75;0.90;;;;;;;;;;5036061;28;20094;-75
2023/08/26 14:29:07;;;;;;;3.08;1.10;;;;;;;;;;5033447;28;20097;-75
2023/08/26 14:31:33;;;;;;;1.75;1.00;;;;;;;;;;5042797;28;20128;-75